This is the latest recevied weather packets stored in our database for station/object HK6RM-16. If no packets are shown the sender has not sent any weather packets the latest 10 day(s).
| Time | Temp. | Humidity | Pressure | Rain* | Wind** | Luminosity | Snow |
|---|---|---|---|---|---|---|---|
| 1787409114 | 17.22° C | 76% | 1016 hPa | 0 mm | - | - | - |
| 1787408154 | 17.22° C | 77% | 1016 hPa | 0 mm | - | - | - |
| 1787407193 | 17.22° C | 77% | 1016 hPa | 0 mm | - | - | - |
| 1787406233 | 15.56° C | 78% | 1016 hPa | 0 mm | - | - | - |
| 1787405272 | 15.56° C | 78% | 1016 hPa | 0 mm | - | - | - |
| 1787404312 | 15.56° C | 78% | 1016 hPa | 0 mm | - | - | - |
| 1787403351 | 15.56° C | 78% | 1016 hPa | 0 mm | - | - | - |
| 1787402391 | 13.89° C | 77% | 1016 hPa | 0 mm | - | - | - |
| 1787401430 | 13.89° C | 77% | 1017 hPa | 0 mm | - | - | - |
| 1787400470 | 14.44° C | 77% | 1017 hPa | 0 mm | - | - | - |
| 1787399509 | 15° C | 77% | 1017 hPa | 0 mm | - | - | - |
| 1787398549 | 15.56° C | 77% | 1017 hPa | 0 mm | - | - | - |
| 1787397589 | 10° C | 53% | 1017 hPa | 0 mm | - | - | - |
| 1787396628 | 10° C | 53% | 1017 hPa | 0 mm | - | - | - |
| 1787395668 | 10° C | 53% | 1017 hPa | 0 mm | - | - | - |
| 1787394707 | 10.56° C | 53% | 1017 hPa | 0 mm | - | - | - |
| 1787393747 | 11.11° C | 53% | 1016 hPa | 0 mm | - | - | - |
| 1787392786 | 11.11° C | 53% | 1016 hPa | 0 mm | - | - | - |
| 1787391826 | 11.11° C | 53% | 1016 hPa | 0 mm | - | - | - |
| 1787390865 | 10.56° C | 53% | 1016 hPa | 0 mm | - | - | - |
| 1787389905 | 11.11° C | 53% | 1016 hPa | 0 mm | - | - | - |
| 1787388944 | 10.56° C | 55% | 1016 hPa | 0 mm | - | - | - |
| 1787387984 | 10.56° C | 51% | 1016 hPa | 0 mm | - | - | - |
| 1787387023 | 11.11° C | 50% | 1016 hPa | 0 mm | - | - | - |
| 1787386063 | 11.11° C | 50% | 1016 hPa | 0 mm | - | - | - |
* Rain latest hour (hover to see other rain measurements)
** Current wind speed in m/s (hover to see current wind gust speed)